sensor_id;sensor_type;location;lat;lon;timestamp;temperature;humidity
4757;DHT22;2392;52.578;13.426;2022-12-16T00:01:04;-5.00;99.90
4757;DHT22;2392;52.578;13.426;2022-12-16T00:03:32;-5.20;99.90
4757;DHT22;2392;52.578;13.426;2022-12-16T00:05:59;-5.30;99.90
4757;DHT22;2392;52.578;13.426;2022-12-16T00:08:30;-5.40;99.90
4757;DHT22;2392;52.578;13.426;2022-12-16T00:10:59;-5.50;99.90
4757;DHT22;2392;52.578;13.426;2022-12-16T00:13:27;-5.50;99.90
4757;DHT22;2392;52.578;13.426;2022-12-16T00:15:55;-5.50;99.90
4757;DHT22;2392;52.578;13.426;2022-12-16T00:18:22;-5.50;99.90
4757;DHT22;2392;52.578;13.426;2022-12-16T00:20:52;-5.50;99.90
4757;DHT22;2392;52.578;13.426;2022-12-16T00:23:19;-5.40;99.90
4757;DHT22;2392;52.578;13.426;2022-12-16T00:25:46;-5.40;99.90
4757;DHT22;2392;52.578;13.426;2022-12-16T00:28:16;-5.40;99.90
4757;DHT22;2392;52.578;13.426;2022-12-16T00:30:47;-5.30;99.90
4757;DHT22;2392;52.578;13.426;2022-12-16T00:33:15;-5.40;99.90
4757;DHT22;2392;52.578;13.426;2022-12-16T00:35:43;-5.50;99.90
4757;DHT22;2392;52.578;13.426;2022-12-16T00:38:10;-5.50;99.90
4757;DHT22;2392;52.578;13.426;2022-12-16T00:40:37;-5.60;99.90
4757;DHT22;2392;52.578;13.426;2022-12-16T00:43:04;-5.60;99.90
4757;DHT22;2392;52.578;13.426;2022-12-16T00:45:33;-5.60;99.90
4757;DHT22;2392;52.578;13.426;2022-12-16T00:48:00;-5.60;99.90
4757;DHT22;2392;52.578;13.426;2022-12-16T00:50:27;-5.60;99.90
4757;DHT22;2392;52.578;13.426;2022-12-16T00:52:54;-5.60;99.90
4757;DHT22;2392;52.578;13.426;2022-12-16T00:55:21;-5.70;99.90
4757;DHT22;2392;52.578;13.426;2022-12-16T00:57:48;-5.80;99.90
4757;DHT22;2392;52.578;13.426;2022-12-16T01:00:16;-5.90;99.90
4757;DHT22;2392;52.578;13.426;2022-12-16T01:02:46;-6.00;99.90
4757;DHT22;2392;52.578;13.426;2022-12-16T01:05:15;-6.00;99.90
4757;DHT22;2392;52.578;13.426;2022-12-16T01:07:42;-6.10;99.90
4757;DHT22;2392;52.578;13.426;2022-12-16T01:10:10;-6.00;99.90
4757;DHT22;2392;52.578;13.426;2022-12-16T01:12:37;-6.00;99.90
4757;DHT22;2392;52.578;13.426;2022-12-16T01:15:06;-5.90;99.90
4757;DHT22;2392;52.578;13.426;2022-12-16T01:17:33;-5.80;99.90
4757;DHT22;2392;52.578;13.426;2022-12-16T01:20:02;-5.80;99.90
4757;DHT22;2392;52.578;13.426;2022-12-16T01:22:30;-5.70;99.90
4757;DHT22;2392;52.578;13.426;2022-12-16T01:24:58;-5.60;99.90
4757;DHT22;2392;52.578;13.426;2022-12-16T01:27:25;-5.60;99.90
4757;DHT22;2392;52.578;13.426;2022-12-16T01:29:52;-5.50;99.90
4757;DHT22;2392;52.578;13.426;2022-12-16T01:32:19;-5.50;99.90
4757;DHT22;2392;52.578;13.426;2022-12-16T01:34:48;-5.40;99.90
4757;DHT22;2392;52.578;13.426;2022-12-16T01:37:17;-5.40;99.90
4757;DHT22;2392;52.578;13.426;2022-12-16T01:39:45;-5.40;99.90
4757;DHT22;2392;52.578;13.426;2022-12-16T01:42:13;-5.30;99.90
4757;DHT22;2392;52.578;13.426;2022-12-16T01:44:42;-5.30;99.90
4757;DHT22;2392;52.578;13.426;2022-12-16T01:47:16;-5.30;99.90
4757;DHT22;2392;52.578;13.426;2022-12-16T01:49:47;-5.30;99.90
4757;DHT22;2392;52.578;13.426;2022-12-16T01:52:20;-5.30;99.90
4757;DHT22;2392;52.578;13.426;2022-12-16T01:54:50;-5.30;99.90
4757;DHT22;2392;52.578;13.426;2022-12-16T01:57:21;-5.20;99.90
4757;DHT22;2392;52.578;13.426;2022-12-16T01:59:53;-5.30;99.90
4757;DHT22;2392;52.578;13.426;2022-12-16T02:02:22;-5.30;99.90
4757;DHT22;2392;52.578;13.426;2022-12-16T02:04:49;-5.30;99.90
4757;DHT22;2392;52.578;13.426;2022-12-16T02:07:55;-5.30;99.90
4757;DHT22;2392;52.578;13.426;2022-12-16T02:10:29;-5.40;99.90
4757;DHT22;2392;52.578;13.426;2022-12-16T02:13:04;-5.50;99.90
4757;DHT22;2392;52.578;13.426;2022-12-16T02:15:40;-5.60;99.90
4757;DHT22;2392;52.578;13.426;2022-12-16T02:18:12;-5.70;99.90
4757;DHT22;2392;52.578;13.426;2022-12-16T02:21:04;-5.70;99.90
4757;DHT22;2392;52.578;13.426;2022-12-16T02:23:55;-5.80;99.90
4757;DHT22;2392;52.578;13.426;2022-12-16T02:27:00;-5.80;99.90
4757;DHT22;2392;52.578;13.426;2022-12-16T02:32:42;-5.70;99.90
4757;DHT22;2392;52.578;13.426;2022-12-16T02:35:19;-5.70;99.90
4757;DHT22;2392;52.578;13.426;2022-12-16T02:37:55;-5.70;99.90
4757;DHT22;2392;52.578;13.426;2022-12-16T02:40:31;-5.70;99.90
4757;DHT22;2392;52.578;13.426;2022-12-16T02:43:06;-5.70;99.90
4757;DHT22;2392;52.578;13.426;2022-12-16T02:45:36;-5.70;99.90
4757;DHT22;2392;52.578;13.426;2022-12-16T02:48:05;-5.70;99.90
4757;DHT22;2392;52.578;13.426;2022-12-16T02:50:35;-5.70;99.90
4757;DHT22;2392;52.578;13.426;2022-12-16T02:53:03;-5.80;99.90
4757;DHT22;2392;52.578;13.426;2022-12-16T02:55:39;-5.80;99.90
4757;DHT22;2392;52.578;13.426;2022-12-16T02:58:15;-5.80;99.90
4757;DHT22;2392;52.578;13.426;2022-12-16T03:00:53;-5.80;99.90
4757;DHT22;2392;52.578;13.426;2022-12-16T03:03:29;-5.80;99.90
4757;DHT22;2392;52.578;13.426;2022-12-16T03:05:59;-5.80;99.90
4757;DHT22;2392;52.578;13.426;2022-12-16T03:08:31;-5.80;99.90
4757;DHT22;2392;52.578;13.426;2022-12-16T03:11:00;-5.80;99.90
4757;DHT22;2392;52.578;13.426;2022-12-16T03:13:30;-5.80;99.90
4757;DHT22;2392;52.578;13.426;2022-12-16T03:15:59;-5.80;99.90
4757;DHT22;2392;52.578;13.426;2022-12-16T03:18:28;-5.70;99.90
4757;DHT22;2392;52.578;13.426;2022-12-16T03:20:59;-5.80;99.90
4757;DHT22;2392;52.578;13.426;2022-12-16T03:23:31;-5.90;99.90
4757;DHT22;2392;52.578;13.426;2022-12-16T03:26:02;-6.00;99.90
4757;DHT22;2392;52.578;13.426;2022-12-16T03:28:39;-6.20;99.90
4757;DHT22;2392;52.578;13.426;2022-12-16T03:31:13;-6.40;99.90
4757;DHT22;2392;52.578;13.426;2022-12-16T03:33:48;-6.40;99.90
4757;DHT22;2392;52.578;13.426;2022-12-16T03:36:20;-6.50;99.90
4757;DHT22;2392;52.578;13.426;2022-12-16T03:38:49;-6.50;99.90
4757;DHT22;2392;52.578;13.426;2022-12-16T03:41:19;-6.50;99.90
4757;DHT22;2392;52.578;13.426;2022-12-16T03:43:48;-6.50;99.90
4757;DHT22;2392;52.578;13.426;2022-12-16T03:46:16;-6.40;99.90
4757;DHT22;2392;52.578;13.426;2022-12-16T03:48:49;-6.30;99.90
4757;DHT22;2392;52.578;13.426;2022-12-16T03:51:16;-6.30;99.90
4757;DHT22;2392;52.578;13.426;2022-12-16T03:53:44;-6.20;99.90
4757;DHT22;2392;52.578;13.426;2022-12-16T03:56:12;-6.20;99.90
4757;DHT22;2392;52.578;13.426;2022-12-16T03:58:39;-6.10;99.90
4757;DHT22;2392;52.578;13.426;2022-12-16T04:01:06;-6.10;99.90
4757;DHT22;2392;52.578;13.426;2022-12-16T04:03:34;-6.00;99.90
4757;DHT22;2392;52.578;13.426;2022-12-16T04:06:03;-6.00;99.90
4757;DHT22;2392;52.578;13.426;2022-12-16T04:08:30;-6.00;99.90
4757;DHT22;2392;52.578;13.426;2022-12-16T04:10:57;-6.00;99.90
4757;DHT22;2392;52.578;13.426;2022-12-16T04:13:41;-5.90;99.90
4757;DHT22;2392;52.578;13.426;2022-12-16T04:16:27;-5.90;99.90
4757;DHT22;2392;52.578;13.426;2022-12-16T04:19:19;-6.00;99.90
4757;DHT22;2392;52.578;13.426;2022-12-16T04:22:10;-6.20;99.90
4757;DHT22;2392;52.578;13.426;2022-12-16T04:24:56;-6.30;99.90
4757;DHT22;2392;52.578;13.426;2022-12-16T04:27:23;-6.40;99.90
4757;DHT22;2392;52.578;13.426;2022-12-16T04:29:50;-6.40;99.90
4757;DHT22;2392;52.578;13.426;2022-12-16T04:32:35;-6.40;99.90
4757;DHT22;2392;52.578;13.426;2022-12-16T04:35:16;-6.50;99.90
4757;DHT22;2392;52.578;13.426;2022-12-16T04:37:58;-6.60;99.90
4757;DHT22;2392;52.578;13.426;2022-12-16T04:40:42;-6.60;99.90
4757;DHT22;2392;52.578;13.426;2022-12-16T04:43:27;-6.70;99.90
4757;DHT22;2392;52.578;13.426;2022-12-16T04:46:11;-6.70;99.90
4757;DHT22;2392;52.578;13.426;2022-12-16T04:48:56;-6.70;99.90
4757;DHT22;2392;52.578;13.426;2022-12-16T04:51:40;-6.60;99.90
4757;DHT22;2392;52.578;13.426;2022-12-16T04:54:26;-6.50;99.90
4757;DHT22;2392;52.578;13.426;2022-12-16T04:57:10;-6.50;99.90
4757;DHT22;2392;52.578;13.426;2022-12-16T04:59:55;-6.50;99.90
4757;DHT22;2392;52.578;13.426;2022-12-16T05:02:39;-6.50;99.90
4757;DHT22;2392;52.578;13.426;2022-12-16T05:05:24;-6.50;99.90
4757;DHT22;2392;52.578;13.426;2022-12-16T05:08:08;-6.50;99.90
4757;DHT22;2392;52.578;13.426;2022-12-16T05:10:54;-6.50;99.90
4757;DHT22;2392;52.578;13.426;2022-12-16T05:13:38;-6.60;99.90
4757;DHT22;2392;52.578;13.426;2022-12-16T05:16:22;-6.60;99.90
4757;DHT22;2392;52.578;13.426;2022-12-16T05:19:07;-6.60;99.90
4757;DHT22;2392;52.578;13.426;2022-12-16T05:21:52;-6.60;99.90
4757;DHT22;2392;52.578;13.426;2022-12-16T05:24:36;-6.50;99.90
4757;DHT22;2392;52.578;13.426;2022-12-16T05:27:22;-6.40;99.90
4757;DHT22;2392;52.578;13.426;2022-12-16T05:30:08;-6.40;99.90
4757;DHT22;2392;52.578;13.426;2022-12-16T05:32:52;-6.30;99.90
4757;DHT22;2392;52.578;13.426;2022-12-16T05:35:37;-6.20;99.90
4757;DHT22;2392;52.578;13.426;2022-12-16T05:38:22;-6.20;99.90
4757;DHT22;2392;52.578;13.426;2022-12-16T05:41:06;-6.20;99.90
4757;DHT22;2392;52.578;13.426;2022-12-16T05:43:51;-6.10;99.90
4757;DHT22;2392;52.578;13.426;2022-12-16T05:46:47;-6.10;99.90
4757;DHT22;2392;52.578;13.426;2022-12-16T05:49:32;-6.00;99.90
4757;DHT22;2392;52.578;13.426;2022-12-16T05:52:17;-6.00;99.90
4757;DHT22;2392;52.578;13.426;2022-12-16T05:55:01;-6.00;99.90
4757;DHT22;2392;52.578;13.426;2022-12-16T05:57:54;-6.00;99.90
4757;DHT22;2392;52.578;13.426;2022-12-16T06:00:39;-6.00;99.90
4757;DHT22;2392;52.578;13.426;2022-12-16T06:03:24;-6.00;99.90
4757;DHT22;2392;52.578;13.426;2022-12-16T06:06:08;-6.00;99.90
4757;DHT22;2392;52.578;13.426;2022-12-16T06:08:53;-6.00;99.90
4757;DHT22;2392;52.578;13.426;2022-12-16T06:11:37;-6.00;99.90
4757;DHT22;2392;52.578;13.426;2022-12-16T06:14:22;-6.00;99.90
4757;DHT22;2392;52.578;13.426;2022-12-16T06:17:08;-6.10;99.90
4757;DHT22;2392;52.578;13.426;2022-12-16T06:19:52;-6.10;99.90
4757;DHT22;2392;52.578;13.426;2022-12-16T06:22:37;-6.00;99.90
4757;DHT22;2392;52.578;13.426;2022-12-16T06:25:21;-6.10;99.90
4757;DHT22;2392;52.578;13.426;2022-12-16T06:28:06;-6.10;99.90
4757;DHT22;2392;52.578;13.426;2022-12-16T06:30:50;-6.20;99.90
4757;DHT22;2392;52.578;13.426;2022-12-16T06:33:36;-6.30;99.90
4757;DHT22;2392;52.578;13.426;2022-12-16T06:36:20;-6.40;99.90
4757;DHT22;2392;52.578;13.426;2022-12-16T06:39:05;-6.40;99.90
4757;DHT22;2392;52.578;13.426;2022-12-16T06:41:49;-6.50;99.90
4757;DHT22;2392;52.578;13.426;2022-12-16T06:44:34;-6.50;99.90
4757;DHT22;2392;52.578;13.426;2022-12-16T06:47:18;-6.40;99.90
4757;DHT22;2392;52.578;13.426;2022-12-16T06:50:05;-6.40;99.90
4757;DHT22;2392;52.578;13.426;2022-12-16T06:52:49;-6.40;99.90
4757;DHT22;2392;52.578;13.426;2022-12-16T06:55:34;-6.30;99.90
4757;DHT22;2392;52.578;13.426;2022-12-16T06:58:19;-6.30;99.90
4757;DHT22;2392;52.578;13.426;2022-12-16T07:01:03;-6.30;99.90
4757;DHT22;2392;52.578;13.426;2022-12-16T07:03:48;-6.30;99.90
4757;DHT22;2392;52.578;13.426;2022-12-16T07:06:34;-6.20;99.90
4757;DHT22;2392;52.578;13.426;2022-12-16T07:09:18;-6.20;99.90
4757;DHT22;2392;52.578;13.426;2022-12-16T07:12:03;-6.20;99.90
4757;DHT22;2392;52.578;13.426;2022-12-16T07:14:48;-6.20;99.90
4757;DHT22;2392;52.578;13.426;2022-12-16T07:17:32;-6.30;99.90
4757;DHT22;2392;52.578;13.426;2022-12-16T07:20:17;-6.30;99.90
4757;DHT22;2392;52.578;13.426;2022-12-16T07:23:02;-6.30;99.90
4757;DHT22;2392;52.578;13.426;2022-12-16T07:25:47;-6.30;99.90
4757;DHT22;2392;52.578;13.426;2022-12-16T07:28:34;-6.30;99.90
4757;DHT22;2392;52.578;13.426;2022-12-16T07:31:18;-6.30;99.90
4757;DHT22;2392;52.578;13.426;2022-12-16T07:34:03;-6.40;99.90
4757;DHT22;2392;52.578;13.426;2022-12-16T07:36:47;-6.50;99.90
4757;DHT22;2392;52.578;13.426;2022-12-16T07:39:33;-6.60;99.90
4757;DHT22;2392;52.578;13.426;2022-12-16T07:42:21;-6.60;99.90
4757;DHT22;2392;52.578;13.426;2022-12-16T07:45:06;-6.60;99.90
4757;DHT22;2392;52.578;13.426;2022-12-16T07:47:50;-6.50;99.90
4757;DHT22;2392;52.578;13.426;2022-12-16T07:50:37;-6.50;99.90
4757;DHT22;2392;52.578;13.426;2022-12-16T07:53:22;-6.40;99.90
4757;DHT22;2392;52.578;13.426;2022-12-16T07:56:10;-6.40;99.90
4757;DHT22;2392;52.578;13.426;2022-12-16T07:59:09;-6.40;99.90
4757;DHT22;2392;52.578;13.426;2022-12-16T08:01:53;-6.40;99.90
4757;DHT22;2392;52.578;13.426;2022-12-16T08:04:38;-6.30;99.90
4757;DHT22;2392;52.578;13.426;2022-12-16T08:07:22;-6.30;99.90
4757;DHT22;2392;52.578;13.426;2022-12-16T08:10:07;-6.30;99.90
4757;DHT22;2392;52.578;13.426;2022-12-16T08:12:58;-6.40;99.90
4757;DHT22;2392;52.578;13.426;2022-12-16T08:15:42;-6.30;99.90
4757;DHT22;2392;52.578;13.426;2022-12-16T08:18:27;-6.30;99.90
4757;DHT22;2392;52.578;13.426;2022-12-16T08:21:11;-6.30;99.90
4757;DHT22;2392;52.578;13.426;2022-12-16T08:23:56;-6.20;99.90
4757;DHT22;2392;52.578;13.426;2022-12-16T08:26:40;-6.20;99.90
4757;DHT22;2392;52.578;13.426;2022-12-16T08:29:26;-6.10;99.90
4757;DHT22;2392;52.578;13.426;2022-12-16T08:32:11;-5.90;99.90
4757;DHT22;2392;52.578;13.426;2022-12-16T08:34:55;-5.80;99.90
4757;DHT22;2392;52.578;13.426;2022-12-16T08:37:40;-5.60;99.90
4757;DHT22;2392;52.578;13.426;2022-12-16T08:40:24;-5.50;99.90
4757;DHT22;2392;52.578;13.426;2022-12-16T08:43:09;-5.30;99.90
4757;DHT22;2392;52.578;13.426;2022-12-16T08:45:55;-5.20;99.90
4757;DHT22;2392;52.578;13.426;2022-12-16T08:48:40;-5.10;99.90
4757;DHT22;2392;52.578;13.426;2022-12-16T08:51:24;-5.00;99.90
4757;DHT22;2392;52.578;13.426;2022-12-16T08:54:09;-4.80;99.90
4757;DHT22;2392;52.578;13.426;2022-12-16T08:56:53;-4.70;99.90
4757;DHT22;2392;52.578;13.426;2022-12-16T08:59:38;-4.60;99.90
4757;DHT22;2392;52.578;13.426;2022-12-16T09:02:24;-4.60;99.90
4757;DHT22;2392;52.578;13.426;2022-12-16T09:05:08;-4.50;99.90
4757;DHT22;2392;52.578;13.426;2022-12-16T09:07:57;-4.40;99.90
4757;DHT22;2392;52.578;13.426;2022-12-16T09:10:42;-4.30;99.90
4757;DHT22;2392;52.578;13.426;2022-12-16T09:13:26;-4.20;99.90
4757;DHT22;2392;52.578;13.426;2022-12-16T09:16:11;-4.20;99.90
4757;DHT22;2392;52.578;13.426;2022-12-16T09:18:56;-4.10;99.90
4757;DHT22;2392;52.578;13.426;2022-12-16T09:21:41;-4.00;99.90
4757;DHT22;2392;52.578;13.426;2022-12-16T09:24:25;-4.00;99.90
4757;DHT22;2392;52.578;13.426;2022-12-16T09:27:09;-3.90;99.90
4757;DHT22;2392;52.578;13.426;2022-12-16T09:29:54;-3.80;99.90
4757;DHT22;2392;52.578;13.426;2022-12-16T09:32:40;-3.70;99.90
4757;DHT22;2392;52.578;13.426;2022-12-16T09:35:26;-3.60;99.90
4757;DHT22;2392;52.578;13.426;2022-12-16T09:38:11;-3.50;99.90
4757;DHT22;2392;52.578;13.426;2022-12-16T09:40:56;-3.40;99.90
4757;DHT22;2392;52.578;13.426;2022-12-16T09:43:53;-3.30;99.90
4757;DHT22;2392;52.578;13.426;2022-12-16T09:46:46;-3.30;99.90
4757;DHT22;2392;52.578;13.426;2022-12-16T09:49:42;-3.20;99.90
4757;DHT22;2392;52.578;13.426;2022-12-16T09:52:31;-3.10;99.90
4757;DHT22;2392;52.578;13.426;2022-12-16T09:55:22;-2.90;99.90
4757;DHT22;2392;52.578;13.426;2022-12-16T09:58:10;-2.80;99.90
4757;DHT22;2392;52.578;13.426;2022-12-16T10:00:56;-2.70;99.90
4757;DHT22;2392;52.578;13.426;2022-12-16T10:03:41;-2.60;99.90
4757;DHT22;2392;52.578;13.426;2022-12-16T10:06:37;-2.50;99.90
4757;DHT22;2392;52.578;13.426;2022-12-16T10:09:28;-2.50;99.90
4757;DHT22;2392;52.578;13.426;2022-12-16T10:12:22;-2.30;99.90
4757;DHT22;2392;52.578;13.426;2022-12-16T10:15:18;-2.20;99.90
4757;DHT22;2392;52.578;13.426;2022-12-16T10:18:13;-2.10;99.90
4757;DHT22;2392;52.578;13.426;2022-12-16T10:20:58;-2.00;99.90
4757;DHT22;2392;52.578;13.426;2022-12-16T10:23:49;-1.90;99.90
4757;DHT22;2392;52.578;13.426;2022-12-16T10:26:43;-1.80;99.90
4757;DHT22;2392;52.578;13.426;2022-12-16T10:29:37;-1.80;99.90
4757;DHT22;2392;52.578;13.426;2022-12-16T10:32:28;-1.80;99.90
4757;DHT22;2392;52.578;13.426;2022-12-16T10:35:19;-1.80;99.90
4757;DHT22;2392;52.578;13.426;2022-12-16T10:38:06;-1.80;99.90
4757;DHT22;2392;52.578;13.426;2022-12-16T10:40:59;-1.80;99.90
4757;DHT22;2392;52.578;13.426;2022-12-16T10:43:46;-1.70;99.90
4757;DHT22;2392;52.578;13.426;2022-12-16T10:46:33;-1.70;99.90
4757;DHT22;2392;52.578;13.426;2022-12-16T10:49:19;-1.70;99.90
4757;DHT22;2392;52.578;13.426;2022-12-16T10:52:05;-1.60;99.90
4757;DHT22;2392;52.578;13.426;2022-12-16T10:54:57;-1.60;99.90
4757;DHT22;2392;52.578;13.426;2022-12-16T10:57:50;-1.60;99.90
4757;DHT22;2392;52.578;13.426;2022-12-16T11:00:41;-1.50;99.90
4757;DHT22;2392;52.578;13.426;2022-12-16T11:03:28;-1.60;99.90
4757;DHT22;2392;52.578;13.426;2022-12-16T11:06:16;-1.50;99.90
4757;DHT22;2392;52.578;13.426;2022-12-16T11:09:26;-1.50;99.90
4757;DHT22;2392;52.578;13.426;2022-12-16T11:12:25;-1.50;99.90
4757;DHT22;2392;52.578;13.426;2022-12-16T11:15:29;-1.40;99.90
4757;DHT22;2392;52.578;13.426;2022-12-16T11:18:17;-1.40;99.90
4757;DHT22;2392;52.578;13.426;2022-12-16T11:21:11;-1.30;99.90
4757;DHT22;2392;52.578;13.426;2022-12-16T11:24:11;-1.30;99.90
4757;DHT22;2392;52.578;13.426;2022-12-16T11:26:58;-1.30;99.90
4757;DHT22;2392;52.578;13.426;2022-12-16T11:29:49;-1.20;99.90
4757;DHT22;2392;52.578;13.426;2022-12-16T11:32:34;-1.20;99.90
4757;DHT22;2392;52.578;13.426;2022-12-16T11:35:24;-1.20;99.90
4757;DHT22;2392;52.578;13.426;2022-12-16T11:38:18;-1.10;99.90
4757;DHT22;2392;52.578;13.426;2022-12-16T11:41:05;-1.10;99.90
4757;DHT22;2392;52.578;13.426;2022-12-16T11:43:51;-1.00;99.90
4757;DHT22;2392;52.578;13.426;2022-12-16T11:46:37;-1.00;99.90
4757;DHT22;2392;52.578;13.426;2022-12-16T11:49:25;-1.00;99.90
4757;DHT22;2392;52.578;13.426;2022-12-16T11:52:15;-1.00;99.90
4757;DHT22;2392;52.578;13.426;2022-12-16T11:55:14;-1.00;99.90
4757;DHT22;2392;52.578;13.426;2022-12-16T11:58:05;-1.00;99.90
4757;DHT22;2392;52.578;13.426;2022-12-16T12:01:01;-0.90;99.90
4757;DHT22;2392;52.578;13.426;2022-12-16T12:03:48;-0.90;99.90
4757;DHT22;2392;52.578;13.426;2022-12-16T12:06:51;-0.90;99.90
4757;DHT22;2392;52.578;13.426;2022-12-16T12:09:46;-0.90;99.90
4757;DHT22;2392;52.578;13.426;2022-12-16T12:12:39;-0.90;99.90
4757;DHT22;2392;52.578;13.426;2022-12-16T12:15:30;-0.90;99.90
4757;DHT22;2392;52.578;13.426;2022-12-16T12:18:34;-0.90;99.90
4757;DHT22;2392;52.578;13.426;2022-12-16T12:21:24;-0.90;99.90
4757;DHT22;2392;52.578;13.426;2022-12-16T12:24:19;-0.90;99.90
4757;DHT22;2392;52.578;13.426;2022-12-16T12:27:12;-0.90;99.90
4757;DHT22;2392;52.578;13.426;2022-12-16T12:30:02;-0.90;99.90
4757;DHT22;2392;52.578;13.426;2022-12-16T12:32:59;-0.90;99.90
4757;DHT22;2392;52.578;13.426;2022-12-16T12:35:55;-0.90;99.90
4757;DHT22;2392;52.578;13.426;2022-12-16T12:38:51;-0.90;99.90
4757;DHT22;2392;52.578;13.426;2022-12-16T12:41:55;-0.90;99.90
4757;DHT22;2392;52.578;13.426;2022-12-16T12:44:50;-0.80;99.90
4757;DHT22;2392;52.578;13.426;2022-12-16T12:47:38;-0.80;99.90
4757;DHT22;2392;52.578;13.426;2022-12-16T12:50:30;-0.80;99.90
4757;DHT22;2392;52.578;13.426;2022-12-16T12:53:37;-0.80;99.90
4757;DHT22;2392;52.578;13.426;2022-12-16T12:56:30;-0.80;99.90
4757;DHT22;2392;52.578;13.426;2022-12-16T12:59:23;-0.70;99.90
4757;DHT22;2392;52.578;13.426;2022-12-16T13:02:14;-0.70;99.90
4757;DHT22;2392;52.578;13.426;2022-12-16T13:05:01;-0.70;99.90
4757;DHT22;2392;52.578;13.426;2022-12-16T13:11:15;-0.70;99.90
4757;DHT22;2392;52.578;13.426;2022-12-16T13:14:00;-0.70;99.90
4757;DHT22;2392;52.578;13.426;2022-12-16T13:17:05;-0.70;99.90
4757;DHT22;2392;52.578;13.426;2022-12-16T13:19:56;-0.70;99.90
4757;DHT22;2392;52.578;13.426;2022-12-16T13:22:43;-0.80;99.90
4757;DHT22;2392;52.578;13.426;2022-12-16T13:25:39;-0.80;99.90
4757;DHT22;2392;52.578;13.426;2022-12-16T13:28:28;-0.80;99.90
4757;DHT22;2392;52.578;13.426;2022-12-16T13:31:16;-0.80;99.90
4757;DHT22;2392;52.578;13.426;2022-12-16T13:34:06;-0.80;99.90
4757;DHT22;2392;52.578;13.426;2022-12-16T13:36:56;-0.80;99.90
4757;DHT22;2392;52.578;13.426;2022-12-16T13:39:42;-0.80;99.90
4757;DHT22;2392;52.578;13.426;2022-12-16T13:42:47;-0.90;99.90
4757;DHT22;2392;52.578;13.426;2022-12-16T13:45:35;-0.90;99.90
4757;DHT22;2392;52.578;13.426;2022-12-16T13:48:41;-0.90;99.90
4757;DHT22;2392;52.578;13.426;2022-12-16T13:58:16;-0.90;99.90
4757;DHT22;2392;52.578;13.426;2022-12-16T14:01:10;-0.90;99.90
4757;DHT22;2392;52.578;13.426;2022-12-16T14:03:56;-0.90;99.90
4757;DHT22;2392;52.578;13.426;2022-12-16T14:06:42;-1.00;99.90
4757;DHT22;2392;52.578;13.426;2022-12-16T14:09:32;-1.00;99.90
4757;DHT22;2392;52.578;13.426;2022-12-16T14:12:36;-1.00;99.90
4757;DHT22;2392;52.578;13.426;2022-12-16T14:15:26;-1.00;99.90
4757;DHT22;2392;52.578;13.426;2022-12-16T14:18:21;-1.00;99.90
4757;DHT22;2392;52.578;13.426;2022-12-16T14:21:13;-1.00;99.90
4757;DHT22;2392;52.578;13.426;2022-12-16T14:24:03;-1.00;99.90
4757;DHT22;2392;52.578;13.426;2022-12-16T14:26:49;-1.00;99.90
4757;DHT22;2392;52.578;13.426;2022-12-16T14:29:35;-1.00;99.90
4757;DHT22;2392;52.578;13.426;2022-12-16T14:32:27;-1.00;99.90
4757;DHT22;2392;52.578;13.426;2022-12-16T14:35:15;-1.00;99.90
4757;DHT22;2392;52.578;13.426;2022-12-16T14:38:23;-1.00;99.90
4757;DHT22;2392;52.578;13.426;2022-12-16T14:41:10;-1.10;99.90
4757;DHT22;2392;52.578;13.426;2022-12-16T14:43:55;-1.10;99.90
4757;DHT22;2392;52.578;13.426;2022-12-16T14:46:41;-1.10;99.90
4757;DHT22;2392;52.578;13.426;2022-12-16T14:49:27;-1.10;99.90
4757;DHT22;2392;52.578;13.426;2022-12-16T14:52:18;-1.20;99.90
4757;DHT22;2392;52.578;13.426;2022-12-16T14:55:11;-1.20;99.90
4757;DHT22;2392;52.578;13.426;2022-12-16T14:58:05;-1.20;99.90
4757;DHT22;2392;52.578;13.426;2022-12-16T15:00:49;-1.20;99.90
4757;DHT22;2392;52.578;13.426;2022-12-16T15:03:38;-1.20;99.90
4757;DHT22;2392;52.578;13.426;2022-12-16T15:06:26;-1.30;99.90
4757;DHT22;2392;52.578;13.426;2022-12-16T15:09:23;-1.30;99.90
4757;DHT22;2392;52.578;13.426;2022-12-16T15:12:09;-1.30;99.90
4757;DHT22;2392;52.578;13.426;2022-12-16T15:14:56;-1.30;99.90
4757;DHT22;2392;52.578;13.426;2022-12-16T15:17:46;-1.30;99.90
4757;DHT22;2392;52.578;13.426;2022-12-16T15:20:35;-1.30;99.90
4757;DHT22;2392;52.578;13.426;2022-12-16T15:23:23;-1.30;99.90
4757;DHT22;2392;52.578;13.426;2022-12-16T15:26:09;-1.30;99.90
4757;DHT22;2392;52.578;13.426;2022-12-16T15:28:59;-1.30;99.90
4757;DHT22;2392;52.578;13.426;2022-12-16T15:31:44;-1.30;99.90
4757;DHT22;2392;52.578;13.426;2022-12-16T15:34:31;-1.30;99.90
4757;DHT22;2392;52.578;13.426;2022-12-16T15:37:23;-1.30;99.90
4757;DHT22;2392;52.578;13.426;2022-12-16T15:40:23;-1.30;99.90
4757;DHT22;2392;52.578;13.426;2022-12-16T15:43:23;-1.30;99.90
4757;DHT22;2392;52.578;13.426;2022-12-16T15:46:18;-1.30;99.90
4757;DHT22;2392;52.578;13.426;2022-12-16T15:49:04;-1.30;99.90
4757;DHT22;2392;52.578;13.426;2022-12-16T15:51:51;-1.30;99.90
4757;DHT22;2392;52.578;13.426;2022-12-16T15:54:50;-1.30;99.90
4757;DHT22;2392;52.578;13.426;2022-12-16T15:57:36;-1.30;99.90
4757;DHT22;2392;52.578;13.426;2022-12-16T16:00:24;-1.30;99.90
4757;DHT22;2392;52.578;13.426;2022-12-16T16:03:20;-1.30;99.90
4757;DHT22;2392;52.578;13.426;2022-12-16T16:06:14;-1.30;99.90
4757;DHT22;2392;52.578;13.426;2022-12-16T16:08:59;-1.30;99.90
4757;DHT22;2392;52.578;13.426;2022-12-16T16:11:48;-1.30;99.90
4757;DHT22;2392;52.578;13.426;2022-12-16T16:14:32;-1.30;99.90
4757;DHT22;2392;52.578;13.426;2022-12-16T16:17:20;-1.30;99.90
4757;DHT22;2392;52.578;13.426;2022-12-16T16:20:06;-1.30;99.90
4757;DHT22;2392;52.578;13.426;2022-12-16T16:22:53;-1.30;99.90
4757;DHT22;2392;52.578;13.426;2022-12-16T16:25:38;-1.30;99.90
4757;DHT22;2392;52.578;13.426;2022-12-16T16:28:23;-1.30;99.90
4757;DHT22;2392;52.578;13.426;2022-12-16T16:31:08;-1.30;99.90
4757;DHT22;2392;52.578;13.426;2022-12-16T16:33:53;-1.30;99.90
4757;DHT22;2392;52.578;13.426;2022-12-16T16:36:38;-1.40;99.90
4757;DHT22;2392;52.578;13.426;2022-12-16T16:39:22;-1.40;99.90
4757;DHT22;2392;52.578;13.426;2022-12-16T16:42:12;-1.40;99.90
4757;DHT22;2392;52.578;13.426;2022-12-16T16:45:01;-1.40;99.90
4757;DHT22;2392;52.578;13.426;2022-12-16T16:47:46;-1.40;99.90
4757;DHT22;2392;52.578;13.426;2022-12-16T16:50:30;-1.40;99.90
4757;DHT22;2392;52.578;13.426;2022-12-16T16:53:15;-1.50;99.90
4757;DHT22;2392;52.578;13.426;2022-12-16T16:55:59;-1.50;99.90
4757;DHT22;2392;52.578;13.426;2022-12-16T16:58:44;-1.50;99.90
4757;DHT22;2392;52.578;13.426;2022-12-16T17:01:30;-1.50;99.90
4757;DHT22;2392;52.578;13.426;2022-12-16T17:04:14;-1.50;99.90
4757;DHT22;2392;52.578;13.426;2022-12-16T17:06:59;-1.50;99.90
4757;DHT22;2392;52.578;13.426;2022-12-16T17:09:43;-1.50;99.90
4757;DHT22;2392;52.578;13.426;2022-12-16T17:12:29;-1.50;99.90
4757;DHT22;2392;52.578;13.426;2022-12-16T17:15:16;-1.50;99.90
4757;DHT22;2392;52.578;13.426;2022-12-16T17:18:03;-1.50;99.90
4757;DHT22;2392;52.578;13.426;2022-12-16T17:20:48;-1.50;99.90
4757;DHT22;2392;52.578;13.426;2022-12-16T17:23:32;-1.50;99.90
4757;DHT22;2392;52.578;13.426;2022-12-16T17:26:17;-1.50;99.90
4757;DHT22;2392;52.578;13.426;2022-12-16T17:29:03;-1.50;99.90
4757;DHT22;2392;52.578;13.426;2022-12-16T17:31:48;-1.50;99.90
4757;DHT22;2392;52.578;13.426;2022-12-16T17:34:34;-1.50;99.90
4757;DHT22;2392;52.578;13.426;2022-12-16T17:37:18;-1.50;99.90
4757;DHT22;2392;52.578;13.426;2022-12-16T17:40:04;-1.50;99.90
4757;DHT22;2392;52.578;13.426;2022-12-16T17:42:48;-1.50;99.90